createdAt,value
2019-04-20T00:00:54.284Z,99729.38
2019-04-20T00:01:59.360Z,99728.75
2019-04-20T00:03:01.277Z,99728.00
2019-04-20T00:04:05.329Z,99728.64
2019-04-20T00:05:09.381Z,99729.23
2019-04-20T00:06:13.126Z,99728.92
2019-04-20T00:07:18.675Z,99721.80
2019-04-20T00:08:27.758Z,99720.38
2019-04-20T00:09:31.289Z,99727.39
2019-04-20T00:10:44.544Z,99721.70
2019-04-20T00:11:49.399Z,99720.75
2019-04-20T00:12:55.644Z,99719.64
2019-04-20T00:13:56.200Z,99719.73
2019-04-20T00:14:50.263Z,99721.49
2019-04-20T00:15:54.056Z,99729.27
2019-04-20T00:16:56.935Z,99719.41
2019-04-20T00:18:03.481Z,99724.03
2019-04-20T00:19:05.866Z,99714.54
2019-04-20T00:20:16.218Z,99723.17
2019-04-20T00:21:33.956Z,99724.50
2019-04-20T00:22:48.616Z,99719.71
2019-04-20T00:23:48.632Z,99724.63
2019-04-20T00:24:58.073Z,99720.92
2019-04-20T00:26:26.810Z,99721.13
2019-04-20T00:27:44.403Z,99717.52
2019-04-20T00:28:47.256Z,99724.56
2019-04-20T00:29:49.912Z,99713.53
2019-04-20T00:30:52.948Z,99718.90
2019-04-20T00:31:52.322Z,99713.98
2019-04-20T00:32:55.579Z,99714.97
2019-04-20T00:33:59.448Z,99719.33
2019-04-20T00:34:54.055Z,99713.61
2019-04-20T00:35:57.013Z,99713.17
2019-04-20T00:37:00.310Z,99712.72
2019-04-20T00:38:03.465Z,99717.52
2019-04-20T00:39:10.418Z,99710.83
2019-04-20T00:40:12.912Z,99719.02
2019-04-20T00:41:17.206Z,99713.56
2019-04-20T00:42:29.078Z,99710.25
2019-04-20T00:43:28.131Z,99713.09
2019-04-20T00:44:34.134Z,99717.64
2019-04-20T00:45:35.222Z,99714.81
2019-04-20T00:46:51.263Z,99712.20
2019-04-20T00:47:50.923Z,99714.59
2019-04-20T00:48:53.439Z,99711.64
2019-04-20T00:50:00.905Z,99714.17
2019-04-20T00:51:17.411Z,99712.97
2019-04-20T00:53:13.953Z,99712.84
2019-04-20T00:54:09.950Z,99709.20
2019-04-20T00:55:12.841Z,99709.50
2019-04-20T00:56:16.150Z,99715.43
2019-04-20T00:57:30.063Z,99709.27
2019-04-20T00:58:32.981Z,99710.61
2019-04-20T00:59:42.941Z,99705.66
2019-04-20T01:01:00.388Z,99707.69
2019-04-20T01:01:59.839Z,99703.39
2019-04-20T01:02:55.535Z,99707.00
2019-04-20T01:04:06.492Z,99705.84
2019-04-20T01:05:11.133Z,99707.48
2019-04-20T01:06:17.683Z,99712.59
2019-04-20T01:07:20.388Z,99702.97
2019-04-20T01:08:19.083Z,99702.00
2019-04-20T01:09:26.898Z,99709.61
2019-04-20T01:10:35.374Z,99707.22
2019-04-20T01:11:39.491Z,99701.57
2019-04-20T01:12:40.258Z,99703.55
2019-04-20T01:13:50.512Z,99705.10
2019-04-20T01:18:38.413Z,99703.98
2019-04-20T01:19:40.618Z,99695.89
2019-04-20T01:20:43.211Z,99703.95
2019-04-20T01:21:54.807Z,99701.41
2019-04-20T01:22:56.021Z,99704.41
2019-04-20T01:23:59.537Z,99703.15
2019-04-20T01:25:04.987Z,99702.94
2019-04-20T01:26:07.510Z,99702.38
2019-04-20T01:27:22.885Z,99700.98
2019-04-20T01:28:27.651Z,99701.06
2019-04-20T01:29:26.071Z,99696.02
2019-04-20T01:30:28.492Z,99703.52
2019-04-20T01:31:33.949Z,99698.50
2019-04-20T01:32:41.637Z,99700.23
2019-04-20T01:33:42.607Z,99701.95
2019-04-20T01:34:48.285Z,99697.48
2019-04-20T01:36:00.690Z,99700.39
2019-04-20T01:37:01.024Z,99701.35
2019-04-20T01:38:07.313Z,99701.13
2019-04-20T01:39:02.967Z,99702.53
2019-04-20T01:40:00.739Z,99696.87
2019-04-20T01:41:03.252Z,99701.66
2019-04-20T01:42:06.515Z,99698.94
2019-04-20T01:43:10.057Z,99703.20
2019-04-20T01:44:13.448Z,99699.15
2019-04-20T01:45:25.212Z,99698.34
2019-04-20T01:46:23.487Z,99697.23
2019-04-20T01:47:32.363Z,99700.35
2019-04-20T01:48:33.314Z,99700.35
2019-04-20T01:49:35.195Z,99697.25
2019-04-20T01:50:43.419Z,99696.39
2019-04-20T01:51:53.603Z,99699.30
2019-04-20T01:52:58.102Z,99698.80
2019-04-20T01:54:11.790Z,99700.88
2019-04-20T01:55:43.946Z,99702.95
2019-04-20T01:56:43.475Z,99694.07
2019-04-20T01:58:00.393Z,99698.56
2019-04-20T01:59:04.876Z,99696.59
2019-04-20T02:00:03.902Z,99698.81
2019-04-20T02:01:23.900Z,99699.86
2019-04-20T02:02:24.947Z,99697.42
2019-04-20T02:03:51.811Z,99696.83
2019-04-20T02:05:04.518Z,99696.47
2019-04-20T02:06:10.002Z,99702.16
2019-04-20T02:07:10.676Z,99696.18
2019-04-20T02:08:18.341Z,99699.13
2019-04-20T02:09:22.221Z,99696.89
2019-04-20T02:10:34.227Z,99688.59
2019-04-20T02:11:33.981Z,99698.13
2019-04-20T02:12:35.930Z,99698.20
2019-04-20T02:13:42.172Z,99692.89
2019-04-20T02:14:45.333Z,99693.72
2019-04-20T02:15:51.271Z,99696.96
2019-04-20T02:16:58.391Z,99689.09
2019-04-20T02:18:07.700Z,99691.92
2019-04-20T02:19:13.512Z,99690.50
2019-04-20T02:20:28.627Z,99691.62
2019-04-20T02:21:28.663Z,99694.23
2019-04-20T02:22:37.317Z,99687.55
2019-04-20T02:23:33.018Z,99685.35
2019-04-20T02:24:25.744Z,99687.37
2019-04-20T02:25:29.042Z,99687.81
2019-04-20T02:26:32.339Z,99688.34
2019-04-20T02:27:44.456Z,99690.02
2019-04-20T02:29:05.963Z,99686.77
2019-04-20T02:30:07.754Z,99691.70
2019-04-20T02:31:28.552Z,99699.16
2019-04-20T02:32:22.423Z,99687.52
2019-04-20T02:34:55.527Z,99687.48
2019-04-20T02:39:37.603Z,99690.61
2019-04-20T02:40:47.355Z,99694.94
2019-04-20T02:41:58.004Z,99696.80
2019-04-20T02:42:51.596Z,99690.42
2019-04-20T02:45:13.066Z,99697.23
2019-04-20T02:46:14.915Z,99688.81
2019-04-20T02:47:24.663Z,99693.70
2019-04-20T02:48:07.720Z,99695.39
2019-04-20T02:51:31.290Z,99691.02
2019-04-20T02:52:50.672Z,99702.15
2019-04-20T02:53:46.592Z,99694.94
2019-04-20T02:54:53.587Z,99697.23
2019-04-20T02:55:48.333Z,99689.86
2019-04-20T02:57:07.352Z,99694.73
2019-04-20T02:59:02.143Z,99688.00
2019-04-20T03:00:07.021Z,99690.72
2019-04-20T03:01:17.796Z,99695.64
2019-04-20T03:02:15.608Z,99691.02
2019-04-20T03:03:14.692Z,99691.09
2019-04-20T03:04:20.312Z,99695.27
2019-04-20T03:05:25.748Z,99694.03
2019-04-20T03:06:30.493Z,99684.22
2019-04-20T03:07:35.381Z,99692.77
2019-04-20T03:08:53.232Z,99691.53
2019-04-20T03:09:54.240Z,99695.52
2019-04-20T03:11:06.314Z,99690.76
2019-04-20T03:12:03.390Z,99692.44
2019-04-20T03:13:09.830Z,99683.14
2019-04-20T03:14:02.202Z,99695.58
2019-04-20T03:15:11.213Z,99690.91
2019-04-20T03:16:16.777Z,99696.20
2019-04-20T03:17:26.965Z,99696.89
2019-04-20T03:18:25.313Z,99692.45
2019-04-20T03:19:23.414Z,99699.91
2019-04-20T03:20:36.856Z,99695.84
2019-04-20T03:21:45.404Z,99691.84
2019-04-20T03:23:07.315Z,99691.77
2019-04-20T03:23:54.196Z,99695.52
2019-04-20T03:24:54.415Z,99694.25
2019-04-20T03:26:05.423Z,99688.52
2019-04-20T03:27:07.563Z,99693.66
2019-04-20T03:28:20.539Z,99692.73
2019-04-20T03:29:36.087Z,99693.88
2019-04-20T03:33:23.856Z,99691.77
2019-04-20T03:34:52.647Z,99694.22
2019-04-20T03:35:31.405Z,99692.98
2019-04-20T03:36:47.255Z,99694.39
2019-04-20T03:37:31.986Z,99696.83
2019-04-20T03:38:33.733Z,99699.75
2019-04-20T03:39:32.393Z,99696.30
2019-04-20T03:40:37.564Z,99698.31
2019-04-20T03:41:36.283Z,99698.89
2019-04-20T03:42:30.872Z,99705.58
2019-04-20T03:43:34.602Z,99696.47
2019-04-20T03:44:38.895Z,99695.61
2019-04-20T03:45:49.962Z,99696.91
2019-04-20T03:46:54.996Z,99696.77
2019-04-20T03:48:04.432Z,99699.14
2019-04-20T03:49:17.289Z,99701.81
2019-04-20T03:50:29.391Z,99696.60
2019-04-20T03:51:32.011Z,99695.08
2019-04-20T03:52:32.708Z,99699.31
2019-04-20T03:53:43.408Z,99700.69
2019-04-20T03:54:52.241Z,99697.53
2019-04-20T03:56:03.809Z,99697.59
2019-04-20T03:57:21.227Z,99695.92
2019-04-20T03:58:24.196Z,99702.39
2019-04-20T03:59:34.628Z,99700.40
2019-04-20T04:00:36.173Z,99698.03
2019-04-20T04:02:07.454Z,99700.15
2019-04-20T04:03:08.386Z,99706.48
2019-04-20T04:04:05.215Z,99704.91
2019-04-20T04:05:10.929Z,99707.97
2019-04-20T04:06:24.224Z,99704.79
2019-04-20T04:07:28.297Z,99707.48
2019-04-20T04:08:35.321Z,99704.18
2019-04-20T04:09:40.138Z,99703.46
2019-04-20T04:10:50.318Z,99706.05
2019-04-20T04:11:55.082Z,99706.18
2019-04-20T04:13:07.293Z,99704.29
2019-04-20T04:14:09.921Z,99705.84
2019-04-20T04:15:12.748Z,99701.44
2019-04-20T04:16:17.200Z,99707.95
2019-04-20T04:17:21.244Z,99701.75
2019-04-20T04:18:29.795Z,99707.52
2019-04-20T04:19:31.709Z,99703.23
2019-04-20T04:20:38.788Z,99703.23
2019-04-20T04:21:53.766Z,99700.52
2019-04-20T04:23:00.410Z,99702.91
2019-04-20T04:24:02.440Z,99702.53
2019-04-20T04:25:03.832Z,99706.94
2019-04-20T04:26:08.723Z,99702.26
2019-04-20T04:27:10.508Z,99702.72
2019-04-20T04:28:20.682Z,99703.63
2019-04-20T04:29:34.516Z,99707.96
2019-04-20T04:30:25.320Z,99706.52
2019-04-20T04:31:36.327Z,99712.41
2019-04-20T04:33:06.971Z,99710.77
2019-04-20T04:33:55.757Z,99707.89
2019-04-20T04:34:52.757Z,99705.48
2019-04-20T04:35:56.569Z,99707.95
2019-04-20T04:37:03.448Z,99707.55
2019-04-20T04:38:09.433Z,99698.52
2019-04-20T04:39:19.645Z,99700.88
2019-04-20T04:40:27.937Z,99706.66
2019-04-20T04:42:27.681Z,99707.30
2019-04-20T04:43:28.486Z,99704.77
2019-04-20T04:44:26.313Z,99704.54
2019-04-20T04:45:23.727Z,99707.01
2019-04-20T04:46:22.869Z,99703.98
2019-04-20T04:47:26.233Z,99699.13
2019-04-20T04:48:34.427Z,99704.43
2019-04-20T04:49:39.283Z,99699.95
2019-04-20T04:50:46.216Z,99691.80
2019-04-20T04:51:50.387Z,99695.47
2019-04-20T04:52:58.782Z,99701.05
2019-04-20T04:53:58.032Z,99690.08
2019-04-20T04:55:07.618Z,99693.45
2019-04-20T04:56:05.754Z,99692.02
2019-04-20T04:57:03.341Z,99695.86
2019-04-20T04:58:06.569Z,99692.69
2019-04-20T04:59:10.613Z,99692.74
2019-04-20T05:00:20.073Z,99693.65
2019-04-20T05:01:25.302Z,99686.06
2019-04-20T05:02:29.963Z,99690.73
2019-04-20T05:03:44.938Z,99689.30
2019-04-20T05:05:20.534Z,99690.73
2019-04-20T05:06:18.655Z,99691.75
2019-04-20T05:07:15.147Z,99687.28
2019-04-20T05:08:21.198Z,99688.05
2019-04-20T05:09:15.812Z,99684.71
2019-04-20T05:10:20.690Z,99688.28
2019-04-20T05:11:23.868Z,99692.58
2019-04-20T05:12:28.335Z,99685.77
2019-04-20T05:13:37.085Z,99687.19
2019-04-20T05:14:47.163Z,99687.41
2019-04-20T05:15:53.934Z,99692.11
2019-04-20T05:16:58.288Z,99691.17
2019-04-20T05:18:05.842Z,99685.77
2019-04-20T05:20:17.379Z,99686.88
2019-04-20T05:21:25.983Z,99687.27
2019-04-20T05:22:34.749Z,99688.48
2019-04-20T05:23:41.399Z,99684.83
2019-04-20T05:24:57.119Z,99683.05
2019-04-20T05:26:10.051Z,99684.95
2019-04-20T05:27:24.653Z,99683.92
2019-04-20T05:28:30.566Z,99685.30
2019-04-20T05:29:29.304Z,99678.84
2019-04-20T05:30:28.774Z,99683.06
2019-04-20T05:31:39.686Z,99681.91
2019-04-20T05:32:44.654Z,99681.84
2019-04-20T05:34:04.161Z,99679.47
2019-04-20T05:35:05.532Z,99675.99
2019-04-20T05:36:06.865Z,99673.75
2019-04-20T05:37:20.838Z,99678.26
2019-04-20T05:38:25.168Z,99672.61
2019-04-20T05:39:26.791Z,99676.00
2019-04-20T05:40:26.239Z,99672.44
2019-04-20T05:41:31.030Z,99670.92
2019-04-20T05:42:41.235Z,99673.11
2019-04-20T05:43:41.181Z,99670.85
2019-04-20T05:44:57.269Z,99669.72
2019-04-20T05:45:55.024Z,99661.14
2019-04-20T05:47:06.901Z,99659.88
2019-04-20T05:48:06.728Z,99656.66
2019-04-20T05:49:19.059Z,99660.33
2019-04-20T05:50:08.268Z,99655.62
2019-04-20T05:51:25.521Z,99658.90
2019-04-20T05:52:36.158Z,99653.07
2019-04-20T05:53:32.575Z,99652.33
2019-04-20T05:54:40.351Z,99656.00
2019-04-20T05:55:40.093Z,99651.02
2019-04-20T05:57:00.579Z,99654.44
2019-04-20T05:57:50.460Z,99654.77
2019-04-20T05:58:50.714Z,99647.97
2019-04-20T06:00:02.196Z,99656.19
2019-04-20T06:01:08.955Z,99655.33
2019-04-20T06:02:11.137Z,99655.77
2019-04-20T06:03:05.825Z,99660.80
2019-04-20T06:04:11.612Z,99656.81
2019-04-20T06:05:23.906Z,99651.84
2019-04-20T06:06:21.819Z,99655.52
2019-04-20T06:08:39.009Z,99651.39
2019-04-20T06:09:34.187Z,99652.95
2019-04-20T06:10:45.406Z,99657.41
2019-04-20T06:12:00.285Z,99652.91
2019-04-20T06:12:46.095Z,99650.28
2019-04-20T06:13:48.664Z,99652.75
2019-04-20T06:15:15.449Z,99641.63
2019-04-20T06:16:29.815Z,99651.23
2019-04-20T06:17:53.140Z,99644.69
2019-04-20T06:19:06.354Z,99644.23
2019-04-20T06:20:16.869Z,99638.98
2019-04-20T06:21:21.308Z,99645.08
2019-04-20T06:22:21.764Z,99645.00
2019-04-20T06:25:11.915Z,99646.58
2019-04-20T06:26:22.753Z,99644.08
2019-04-20T06:27:11.426Z,99643.02
2019-04-20T06:28:16.083Z,99647.08
2019-04-20T06:29:18.386Z,99648.09
2019-04-20T06:30:20.164Z,99644.01
2019-04-20T06:31:30.048Z,99641.85
2019-04-20T06:33:24.625Z,99646.27
2019-04-20T06:34:33.458Z,99648.91
2019-04-20T06:35:56.607Z,99641.11
2019-04-20T06:36:41.353Z,99640.28
2019-04-20T06:37:45.881Z,99645.19
2019-04-20T06:41:17.337Z,99642.91
2019-04-20T06:43:09.068Z,99634.86
2019-04-20T06:44:08.808Z,99642.63
2019-04-20T06:45:18.289Z,99639.30
2019-04-20T06:46:18.775Z,99644.94
2019-04-20T06:47:18.822Z,99643.98
2019-04-20T06:48:29.120Z,99644.66
2019-04-20T06:50:29.185Z,99640.02
2019-04-20T06:51:42.512Z,99645.06
2019-04-20T06:53:13.241Z,99642.66
2019-04-20T06:54:07.286Z,99641.32
2019-04-20T06:55:14.188Z,99642.61
2019-04-20T06:56:29.389Z,99636.02
2019-04-20T06:57:34.616Z,99646.72
2019-04-20T06:58:44.852Z,99646.75
2019-04-20T06:59:43.408Z,99646.49
2019-04-20T07:00:53.441Z,99645.92
2019-04-20T07:01:58.315Z,99644.00
2019-04-20T07:03:07.946Z,99644.95
2019-04-20T07:04:15.043Z,99640.17
2019-04-20T07:04:59.637Z,99643.52
2019-04-20T07:06:23.232Z,99638.95
2019-04-20T07:07:15.690Z,99639.81
2019-04-20T07:08:34.623Z,99641.58
2019-04-20T07:09:23.491Z,99641.00
2019-04-20T07:10:35.904Z,99647.25
2019-04-20T07:11:32.200Z,99641.56
2019-04-20T07:12:35.680Z,99635.84
2019-04-20T07:13:33.679Z,99647.58
2019-04-20T07:14:39.083Z,99633.80
2019-04-20T07:15:46.278Z,99637.95
2019-04-20T07:17:00.145Z,99630.97
2019-04-20T07:18:23.020Z,99634.89
2019-04-20T07:19:24.132Z,99633.11
2019-04-20T07:20:51.664Z,99634.10
2019-04-20T07:22:17.006Z,99625.83
2019-04-20T07:24:18.446Z,99631.23
2019-04-20T07:25:16.317Z,99633.02
2019-04-20T07:26:22.264Z,99632.48
2019-04-20T07:27:26.238Z,99627.75
2019-04-20T07:28:35.591Z,99621.92
2019-04-20T07:29:36.736Z,99624.81
2019-04-20T07:30:41.508Z,99617.88
2019-04-20T07:31:39.372Z,99617.91
2019-04-20T07:32:52.536Z,99612.67
2019-04-20T07:33:54.387Z,99612.36
2019-04-20T07:34:58.560Z,99619.70
2019-04-20T07:35:56.321Z,99621.78
2019-04-20T07:37:28.351Z,99629.70
2019-04-20T07:38:24.324Z,99616.02
2019-04-20T07:39:13.481Z,99616.44
2019-04-20T07:40:29.223Z,99617.81
2019-04-20T07:41:33.113Z,99619.07
2019-04-20T07:42:29.090Z,99619.98
2019-04-20T07:43:30.086Z,99617.85
2019-04-20T07:44:44.256Z,99621.47
2019-04-20T07:45:36.541Z,99615.71
2019-04-20T07:47:08.868Z,99621.59
2019-04-20T07:47:56.870Z,99617.92
2019-04-20T07:48:54.386Z,99620.05
2019-04-20T07:49:58.072Z,99612.56
2019-04-20T07:50:56.829Z,99617.25
2019-04-20T07:51:49.462Z,99613.78
2019-04-20T07:53:09.238Z,99610.79
2019-04-20T07:54:26.700Z,99605.27
2019-04-20T07:56:34.939Z,99603.74
2019-04-20T07:57:30.745Z,99609.25
2019-04-20T07:58:27.355Z,99600.88
2019-04-20T07:59:32.534Z,99606.09
2019-04-20T08:00:55.052Z,99607.01
2019-04-20T08:02:08.433Z,99600.28
2019-04-20T08:04:36.409Z,99604.14
2019-04-20T08:05:40.612Z,99600.36
2019-04-20T08:06:40.742Z,99604.01
2019-04-20T08:07:46.347Z,99605.05
2019-04-20T08:08:57.421Z,99595.05
2019-04-20T08:09:54.695Z,99609.36
2019-04-20T08:11:07.474Z,99597.77
2019-04-20T08:12:25.679Z,99601.48
2019-04-20T08:13:32.065Z,99600.42
2019-04-20T08:14:31.865Z,99597.20
2019-04-20T08:15:42.754Z,99605.12
2019-04-20T08:17:09.593Z,99600.48
2019-04-20T08:17:50.949Z,99598.95
2019-04-20T08:18:49.898Z,99600.16
2019-04-20T08:19:52.167Z,99607.02
2019-04-20T08:20:58.398Z,99601.89
2019-04-20T08:21:58.604Z,99594.75
2019-04-20T08:23:09.782Z,99594.86
2019-04-20T08:24:07.020Z,99595.40
2019-04-20T08:25:08.318Z,99600.24
2019-04-20T08:26:09.030Z,99601.44
2019-04-20T08:27:10.950Z,99598.05
2019-04-20T08:28:21.435Z,99592.92
2019-04-20T08:29:41.708Z,99599.25
2019-04-20T08:30:41.272Z,99590.81
2019-04-20T08:32:16.423Z,99588.80
2019-04-20T08:33:17.827Z,99587.29
2019-04-20T08:34:35.348Z,99583.89
2019-04-20T08:35:42.546Z,99583.39
2019-04-20T08:36:49.228Z,99581.59
2019-04-20T08:37:59.451Z,99582.57
2019-04-20T08:39:12.740Z,99580.50
2019-04-20T08:40:01.740Z,99577.44
2019-04-20T08:40:59.462Z,99578.22
2019-04-20T08:42:06.390Z,99589.96
2019-04-20T08:43:20.046Z,99571.84
2019-04-20T08:44:33.986Z,99575.19
2019-04-20T08:45:23.909Z,99568.61
2019-04-20T08:46:26.782Z,99574.66
2019-04-20T08:47:37.938Z,99569.02
2019-04-20T08:48:32.849Z,99576.82
2019-04-20T08:49:41.431Z,99569.97
2019-04-20T08:50:41.468Z,99561.75
2019-04-20T08:51:55.031Z,99565.20
2019-04-20T08:53:09.610Z,99571.56
2019-04-20T08:54:00.010Z,99568.81
2019-04-20T08:55:07.772Z,99563.36
2019-04-20T08:56:02.285Z,99567.73
2019-04-20T08:56:55.379Z,99566.39
2019-04-20T08:57:56.490Z,99555.84
2019-04-20T08:58:59.647Z,99556.59
2019-04-20T09:00:09.221Z,99566.45
2019-04-20T09:01:20.035Z,99562.71
2019-04-20T09:02:18.534Z,99567.53
2019-04-20T09:03:27.604Z,99555.95
2019-04-20T09:04:38.785Z,99553.53
2019-04-20T09:05:42.417Z,99557.23
2019-04-20T09:06:50.630Z,99553.83
2019-04-20T09:07:49.983Z,99552.04
2019-04-20T09:08:53.958Z,99556.25
2019-04-20T09:10:12.316Z,99552.52
2019-04-20T09:11:10.288Z,99552.91
2019-04-20T09:12:16.756Z,99548.80
2019-04-20T09:13:12.060Z,99558.42
2019-04-20T09:14:18.694Z,99554.27
2019-04-20T09:15:23.372Z,99548.44
2019-04-20T09:16:35.680Z,99542.02
2019-04-20T09:17:45.002Z,99544.57
2019-04-20T09:18:50.271Z,99537.95
2019-04-20T09:19:55.890Z,99542.58
2019-04-20T09:20:58.909Z,99536.84
2019-04-20T09:22:24.458Z,99537.69
2019-04-20T09:23:33.496Z,99539.77
2019-04-20T09:24:47.451Z,99539.09
2019-04-20T09:26:47.961Z,99536.37
2019-04-20T09:27:48.758Z,99539.94
2019-04-20T09:28:59.029Z,99537.08
2019-04-20T09:30:09.433Z,99530.72
2019-04-20T09:31:18.492Z,99529.33
2019-04-20T09:32:23.347Z,99524.55
2019-04-20T09:33:46.995Z,99528.64
2019-04-20T09:34:55.811Z,99530.58
2019-04-20T09:35:48.656Z,99534.25
2019-04-20T09:37:20.352Z,99527.55
2019-04-20T09:38:15.489Z,99525.45
2019-04-20T09:39:37.807Z,99526.84
2019-04-20T09:40:50.824Z,99528.14
2019-04-20T09:42:00.381Z,99519.44
2019-04-20T09:43:06.946Z,99516.06
2019-04-20T09:44:10.921Z,99515.53
2019-04-20T09:45:27.625Z,99524.48
2019-04-20T09:46:26.389Z,99514.41
2019-04-20T09:47:35.842Z,99510.22
2019-04-20T09:48:41.983Z,99516.61
2019-04-20T09:49:51.881Z,99509.95
2019-04-20T09:51:03.844Z,99509.04
2019-04-20T09:52:01.682Z,99511.89
2019-04-20T09:53:09.875Z,99498.34
2019-04-20T09:54:17.465Z,99498.73
2019-04-20T09:55:16.335Z,99496.00
2019-04-20T09:56:20.766Z,99497.07
2019-04-20T09:57:30.964Z,99503.42
2019-04-20T09:58:26.228Z,99505.08
2019-04-20T09:59:39.706Z,99503.48
2019-04-20T10:00:56.751Z,99493.81
2019-04-20T10:01:50.803Z,99504.05
2019-04-20T10:02:50.585Z,99497.17
2019-04-20T10:03:52.844Z,99496.09
2019-04-20T10:04:55.651Z,99483.05
2019-04-20T10:05:59.272Z,99482.40
2019-04-20T10:07:07.951Z,99491.88
2019-04-20T10:08:09.654Z,99490.26
2019-04-20T10:09:11.630Z,99491.89
2019-04-20T10:10:24.380Z,99487.98
2019-04-20T10:11:19.419Z,99491.50
2019-04-20T10:12:22.041Z,99494.77
2019-04-20T10:13:25.234Z,99486.90
2019-04-20T10:14:28.909Z,99487.69
2019-04-20T10:15:32.752Z,99488.28
2019-04-20T10:16:35.800Z,99484.38
2019-04-20T10:17:39.188Z,99483.14
2019-04-20T10:18:46.823Z,99485.80
2019-04-20T10:19:48.781Z,99478.39
2019-04-20T10:20:51.650Z,99481.11
2019-04-20T10:21:54.882Z,99483.31
2019-04-20T10:22:58.476Z,99480.19
2019-04-20T10:24:01.333Z,99472.47
2019-04-20T10:25:04.754Z,99471.73
2019-04-20T10:26:07.312Z,99462.80
2019-04-20T10:27:12.251Z,99466.68
2019-04-20T10:28:19.445Z,99472.40
2019-04-20T10:29:21.970Z,99478.91
2019-04-20T10:30:26.054Z,99469.50
2019-04-20T10:31:28.826Z,99461.27
2019-04-20T10:32:38.850Z,99467.72
2019-04-20T10:33:35.599Z,99471.97
2019-04-20T10:34:38.844Z,99462.86
2019-04-20T10:35:41.769Z,99458.25
2019-04-20T10:36:44.053Z,99467.63
2019-04-20T10:37:49.625Z,99466.52
2019-04-20T10:38:53.153Z,99462.02
2019-04-20T10:39:56.432Z,99465.16
2019-04-20T10:41:08.156Z,99461.70
2019-04-20T10:42:04.366Z,99458.16
2019-04-20T10:43:08.070Z,99477.44
2019-04-20T10:44:12.308Z,99464.70
2019-04-20T10:45:15.363Z,99466.41
2019-04-20T10:46:20.733Z,99471.03
2019-04-20T10:47:23.591Z,99463.19
2019-04-20T10:48:32.054Z,99456.60
2019-04-20T10:49:33.142Z,99463.01
2019-04-20T10:50:36.773Z,99461.81
2019-04-20T10:51:39.971Z,99454.99
2019-04-20T10:52:43.680Z,99453.95
2019-04-20T10:53:48.615Z,99453.78
2019-04-20T10:54:52.062Z,99446.05
2019-04-20T10:55:55.717Z,99460.86
2019-04-20T10:56:59.451Z,99467.16
2019-04-20T10:58:03.802Z,99447.48
2019-04-20T10:59:07.703Z,99458.20
2019-04-20T11:00:13.537Z,99449.64
2019-04-20T11:01:15.756Z,99444.90
2019-04-20T11:02:19.483Z,99440.00
2019-04-20T11:03:22.820Z,99449.22
2019-04-20T11:04:26.313Z,99440.84
2019-04-20T11:05:30.722Z,99454.70
2019-04-20T11:06:34.456Z,99442.45
2019-04-20T11:07:37.122Z,99439.73
2019-04-20T11:08:40.705Z,99443.92
2019-04-20T11:09:42.821Z,99450.32
2019-04-20T11:10:58.961Z,99451.55
2019-04-20T11:11:50.423Z,99448.31
2019-04-20T11:12:53.403Z,99451.48
2019-04-20T11:13:59.873Z,99435.44
2019-04-20T11:15:00.646Z,99446.48
2019-04-20T11:16:04.308Z,99435.17
2019-04-20T11:17:06.910Z,99433.49
2019-04-20T11:18:09.529Z,99426.91
2019-04-20T11:19:11.676Z,99429.92
2019-04-20T11:20:15.148Z,99437.73
2019-04-20T11:21:17.908Z,99441.56
2019-04-20T11:22:20.055Z,99436.13
2019-04-20T11:23:22.530Z,99428.16
2019-04-20T11:24:26.080Z,99433.17
2019-04-20T11:25:30.326Z,99432.83
2019-04-20T11:26:36.586Z,99433.73
2019-04-20T11:27:38.405Z,99427.89
2019-04-20T11:28:41.975Z,99436.49
2019-04-20T11:29:44.753Z,99436.25
2019-04-20T11:30:48.050Z,99435.82
2019-04-20T11:31:54.347Z,99433.27
2019-04-20T11:32:56.008Z,99429.22
2019-04-20T11:33:58.543Z,99433.55
2019-04-20T11:35:11.473Z,99423.11
2019-04-20T11:36:07.324Z,99427.28
2019-04-20T11:37:10.805Z,99418.80
2019-04-20T11:38:17.010Z,99425.44
2019-04-20T11:39:18.833Z,99417.41
2019-04-20T11:40:23.365Z,99422.41
2019-04-20T11:41:29.137Z,99419.27
2019-04-20T11:42:31.876Z,99425.58
2019-04-20T11:43:35.655Z,99413.72
2019-04-20T11:44:38.553Z,99414.11
2019-04-20T11:45:40.747Z,99412.09
2019-04-20T11:46:43.326Z,99410.54
2019-04-20T11:47:47.287Z,99413.67
2019-04-20T11:48:49.952Z,99413.59
2019-04-20T11:49:53.413Z,99412.88
2019-04-20T11:50:57.663Z,99411.63
2019-04-20T11:52:01.406Z,99412.29
2019-04-20T11:53:03.955Z,99413.00
2019-04-20T11:54:08.027Z,99406.17
2019-04-20T11:55:12.637Z,99410.98
2019-04-20T11:56:21.304Z,99398.52
2019-04-20T11:57:19.631Z,99402.91
2019-04-20T11:58:21.853Z,99407.86
2019-04-20T11:59:25.359Z,99423.84
2019-04-20T12:00:46.028Z,99398.94
2019-04-20T12:02:02.545Z,99407.27
2019-04-20T12:03:15.881Z,99408.34
2019-04-20T12:04:28.456Z,99398.67
2019-04-20T12:05:31.590Z,99399.63
2019-04-20T12:06:26.512Z,99402.23
2019-04-20T12:07:38.194Z,99399.45
2019-04-20T12:08:42.707Z,99406.52
2019-04-20T12:09:45.242Z,99405.43
2019-04-20T12:10:52.862Z,99399.70
2019-04-20T12:12:02.051Z,99392.92
2019-04-20T12:12:57.759Z,99392.80
2019-04-20T12:14:00.680Z,99398.63
2019-04-20T12:15:06.493Z,99395.65
2019-04-20T12:16:09.859Z,99395.82
2019-04-20T12:17:13.573Z,99385.69
2019-04-20T12:18:17.815Z,99387.58
2019-04-20T12:19:20.749Z,99400.57
2019-04-20T12:20:23.092Z,99394.94
2019-04-20T12:21:28.678Z,99381.99
2019-04-20T12:22:32.437Z,99384.65
2019-04-20T12:23:36.081Z,99387.62
2019-04-20T12:24:38.446Z,99387.89
2019-04-20T12:25:42.743Z,99393.78
2019-04-20T12:26:46.879Z,99380.09
2019-04-20T12:27:55.099Z,99379.02
2019-04-20T12:28:54.213Z,99401.45
2019-04-20T12:29:57.567Z,99399.64
2019-04-20T12:31:04.064Z,99391.67
2019-04-20T12:32:06.908Z,99382.58
2019-04-20T12:33:09.606Z,99385.03
2019-04-20T12:34:12.699Z,99387.31
2019-04-20T12:35:16.440Z,99379.39
2019-04-20T12:36:18.715Z,99391.92
2019-04-20T12:37:20.911Z,99372.72
2019-04-20T12:38:23.312Z,99373.84
2019-04-20T12:39:25.094Z,99376.90
2019-04-20T12:40:28.229Z,99377.60
2019-04-20T12:41:37.140Z,99369.81
2019-04-20T12:42:34.993Z,99380.81
2019-04-20T12:43:38.107Z,99379.22
2019-04-20T12:44:41.697Z,99379.14
2019-04-20T12:45:44.133Z,99375.39
2019-04-20T12:46:47.801Z,99369.37
2019-04-20T12:47:51.545Z,99359.48
2019-04-20T12:48:53.571Z,99355.22
2019-04-20T12:49:56.150Z,99367.58
2019-04-20T12:50:59.496Z,99363.89
2019-04-20T12:52:06.074Z,99363.92
2019-04-20T12:53:06.575Z,99360.75
2019-04-20T12:54:08.853Z,99358.27
2019-04-20T12:55:12.408Z,99357.22
2019-04-20T12:56:14.864Z,99366.16
2019-04-20T12:57:18.566Z,99355.73
2019-04-20T12:58:21.249Z,99358.36
2019-04-20T12:59:25.454Z,99359.59
2019-04-20T13:00:49.652Z,99369.33
2019-04-20T13:01:55.403Z,99375.81
2019-04-20T13:02:59.158Z,99369.77
2019-04-20T13:04:04.472Z,99357.24
2019-04-20T13:05:09.421Z,99350.75
2019-04-20T13:06:12.152Z,99356.64
2019-04-20T13:07:15.674Z,99354.02
2019-04-20T13:08:28.590Z,99352.77
2019-04-20T13:09:32.610Z,99354.13
2019-04-20T13:10:35.956Z,99350.36
2019-04-20T13:11:49.469Z,99348.24
2019-04-20T13:12:46.834Z,99354.86
2019-04-20T13:14:14.578Z,99340.94
2019-04-20T13:15:40.545Z,99338.38
2019-04-20T13:16:44.070Z,99336.78
2019-04-20T13:17:49.280Z,99350.41
2019-04-20T13:18:55.265Z,99349.62
2019-04-20T13:19:57.886Z,99360.33